Time;durP1;ratioP1;P1;durP2;ratioP2;P2;SDS_P1;SDS_P2;PMS_P1;PMS_P2;Temp;Humidity;BMP_temperature;BMP_pressure;BME280_temperature;BME280_humidity;BME280_pressure;Samples;Min_cycle;Max_cycle;Signal;HPM_P1;HPM_P2
2022/09/07 00:02:23;;;;;;;3.22;2.92;;;;;;;8.22;72.02;101566.30;1825487;78;20895;-86
2022/09/07 00:04:49;;;;;;;2.67;2.47;;;;;;;8.19;72.06;101564.64;1825370;78;20962;-86
2022/09/07 00:07:16;;;;;;;7.35;2.60;;;;;;;8.17;72.15;101566.91;1825375;78;21130;-85
2022/09/07 00:09:44;;;;;;;3.90;1.95;;;;;;;8.14;72.26;101564.39;1825258;78;20969;-86
2022/09/07 00:12:10;;;;;;;3.35;2.50;;;;;;;8.11;72.43;101564.05;1825619;78;21429;-87
2022/09/07 00:14:37;;;;;;;3.37;2.17;;;;;;;8.09;72.57;101562.81;1825338;78;20848;-87
2022/09/07 00:17:04;;;;;;;4.05;2.87;;;;;;;8.10;72.59;101574.11;1825392;78;20942;-87
2022/09/07 00:19:31;;;;;;;3.58;2.55;;;;;;;8.07;72.67;101572.89;1825387;78;21124;-86
2022/09/07 00:21:57;;;;;;;3.27;2.35;;;;;;;8.04;72.68;101577.77;1825467;78;21329;-86
2022/09/07 00:24:24;;;;;;;3.92;2.77;;;;;;;8.03;72.62;101575.23;1825851;78;21002;-86
2022/09/07 00:26:54;;;;;;;5.78;2.30;;;;;;;8.01;72.69;101582.27;1826183;78;21377;-86
2022/09/07 00:29:21;;;;;;;4.42;2.40;;;;;;;8.00;72.71;101576.63;1799540;78;20920;-86
2022/09/07 00:31:49;;;;;;;3.45;2.35;;;;;;;7.97;72.79;101574.12;1825836;78;21183;-86
2022/09/07 00:34:15;;;;;;;3.08;2.58;;;;;;;7.96;72.75;101576.32;1825634;78;20894;-86
2022/09/07 00:36:42;;;;;;;5.28;2.55;;;;;;;7.93;72.82;101570.75;1825495;78;20950;-85
2022/09/07 00:39:08;;;;;;;3.50;2.27;;;;;;;7.92;73.01;101576.05;1825281;78;21477;-87
2022/09/07 00:41:35;;;;;;;4.25;2.75;;;;;;;7.92;73.14;101577.36;1825675;78;20856;-85
2022/09/07 00:44:44;;;;;;;6.50;2.27;;;;;;;7.93;73.22;101567.30;1825360;78;21130;-86
2022/09/07 00:47:19;;;;;;;4.22;2.30;;;;;;;7.93;73.28;101569.91;1825044;78;20939;-87
2022/09/07 00:49:51;;;;;;;3.50;2.45;;;;;;;7.93;73.25;101572.52;1823974;78;20871;-87
2022/09/07 00:52:17;;;;;;;4.55;2.77;;;;;;;7.91;73.31;101574.33;1825648;78;20930;-87
2022/09/07 00:54:48;;;;;;;4.45;2.40;;;;;;;7.89;73.29;101573.06;1825232;78;20867;-85
2022/09/07 00:57:14;;;;;;;3.65;2.90;;;;;;;7.86;73.33;101570.10;1823342;78;21134;-86
2022/09/07 00:59:45;;;;;;;2.87;2.62;;;;;;;7.85;73.35;101566.27;1821678;78;20920;-86
2022/09/07 01:02:12;;;;;;;5.30;2.55;;;;;;;7.84;73.43;101565.38;1822249;78;21393;-82
2022/09/07 01:04:39;;;;;;;2.42;2.08;;;;;;;7.83;73.53;101559.77;1821803;78;21381;-86
2022/09/07 01:07:06;;;;;;;5.42;2.80;;;;;;;7.83;73.67;101565.00;1822043;78;20887;-85
2022/09/07 01:09:33;;;;;;;3.70;2.42;;;;;;;7.85;73.65;101565.80;1821921;78;21471;-85
2022/09/07 01:12:01;;;;;;;2.70;2.15;;;;;;;7.85;73.48;101567.11;1821824;78;21032;-85
2022/09/07 01:14:33;;;;;;;3.30;2.65;;;;;;;7.86;73.47;101562.73;1789988;78;20876;-86
2022/09/07 01:17:57;;;;;;;7.33;2.75;;;;;;;7.86;73.49;101565.34;1822271;78;20974;-86
2022/09/07 01:20:29;;;;;;;5.75;2.40;;;;;;;7.84;73.46;101561.47;1796978;78;20915;-85
2022/09/07 01:23:30;;;;;;;4.33;2.80;;;;;;;7.78;73.21;101556.90;1822259;78;21212;-87
2022/09/07 01:26:12;;;;;;;2.83;1.92;;;;;;;7.75;73.11;101558.31;1822011;78;20907;-86
2022/09/07 01:28:38;;;;;;;5.12;2.10;;;;;;;7.68;73.11;101566.80;1822273;78;20903;-86
2022/09/07 01:31:44;;;;;;;5.05;2.08;;;;;;;7.63;73.20;101567.42;1821818;78;20848;-86
2022/09/07 01:34:19;;;;;;;3.87;2.58;;;;;;;7.58;73.24;101562.34;1821821;78;21021;-83
2022/09/07 01:36:54;;;;;;;4.75;2.90;;;;;;;7.52;73.38;101565.61;1822061;78;21126;-85
2022/09/07 01:39:29;;;;;;;3.15;2.60;;;;;;;7.48;73.48;101563.53;1822216;78;20955;-84
2022/09/07 01:42:04;;;;;;;2.77;2.10;;;;;;;7.44;73.69;101569.29;1821921;78;20918;-85
2022/09/07 01:44:41;;;;;;;2.98;2.20;;;;;;;7.39;73.82;101567.74;1820750;78;20891;-85
2022/09/07 01:47:36;;;;;;;4.35;2.00;;;;;;;7.35;73.93;101573.50;1818746;78;21070;-86
2022/09/07 01:50:18;;;;;;;;;;;;;;;7.30;74.13;101570.19;1828068;77;21113;-85
2022/09/07 01:52:55;;;;;;;2.92;2.10;;;;;;;7.23;74.34;101564.30;1825008;77;20101;-84
2022/09/07 01:55:30;;;;;;;4.35;2.40;;;;;;;7.21;74.37;101566.56;1793066;77;20879;-86
2022/09/07 01:58:14;;;;;;;6.05;2.22;;;;;;;7.18;74.65;101567.94;1826448;76;21231;-86
2022/09/07 02:00:45;;;;;;;2.70;2.20;;;;;;;7.16;74.69;101562.79;1828136;77;20904;-86
2022/09/07 02:03:21;;;;;;;2.55;2.25;;;;;;;7.14;74.64;101573.72;1827880;77;21212;-86
2022/09/07 02:06:02;;;;;;;5.72;2.10;;;;;;;7.12;74.78;101574.67;1824272;76;20757;-87
2022/09/07 02:08:54;;;;;;;4.80;2.40;;;;;;;7.08;74.82;101573.05;1828125;76;20899;-86
2022/09/07 02:11:35;;;;;;;2.65;2.05;;;;;;;7.03;74.74;101572.73;1828272;77;21140;-86
2022/09/07 02:14:19;;;;;;;5.85;2.55;;;;;;;6.99;74.92;101565.05;1828080;76;20911;-86
2022/09/07 02:16:59;;;;;;;4.40;2.40;;;;;;;6.98;74.98;101563.33;1828115;76;21075;-87
2022/09/07 02:19:38;;;;;;;5.08;2.87;;;;;;;6.96;75.03;101567.30;1828217;77;20979;-86
2022/09/07 02:22:10;;;;;;;4.65;2.77;;;;;;;6.92;75.30;101563.53;1828091;77;20883;-86
2022/09/07 02:24:40;;;;;;;3.52;2.27;;;;;;;6.88;75.57;101558.00;1827989;77;20958;-87
2022/09/07 02:27:17;;;;;;;3.02;2.52;;;;;;;6.86;75.77;101563.25;1828730;76;20867;-86
2022/09/07 02:29:43;;;;;;;3.02;2.35;;;;;;;6.83;75.77;101557.67;1827705;77;21101;-85
2022/09/07 02:32:10;;;;;;;4.75;2.30;;;;;;;6.83;75.71;101560.28;1828438;77;20899;-84
2022/09/07 02:34:37;;;;;;;4.50;3.05;;;;;;;6.82;75.61;101558.56;1827942;77;20942;-85
2022/09/07 02:37:05;;;;;;;2.83;2.08;;;;;;;6.80;75.49;101557.78;1825875;78;20892;-86
2022/09/07 02:39:32;;;;;;;3.85;3.02;;;;;;;6.77;75.38;101562.22;1825450;78;20880;-86
2022/09/07 02:41:59;;;;;;;5.40;3.02;;;;;;;6.74;75.21;101561.02;1827555;78;21113;-83
2022/09/07 02:44:31;;;;;;;7.10;3.20;;;;;;;6.71;75.14;101573.66;1825553;78;20840;-86
2022/09/07 02:47:31;;;;;;;7.23;2.70;;;;;;;6.68;75.17;101566.39;1826414;77;20840;-86
2022/09/07 02:50:27;;;;;;;3.47;2.85;;;;;;;6.65;75.29;101564.73;1827562;78;20896;-85
2022/09/07 02:53:32;;;;;;;6.92;2.62;;;;;;;6.61;75.45;101565.26;1765692;80;21409;-86
2022/09/07 02:56:31;;;;;;;3.55;2.40;;;;;;;6.58;75.65;101564.48;1698798;84;21872;-86
2022/09/07 02:59:46;;;;;;;7.55;2.40;;;;;;;6.56;75.77;101559.33;1699165;84;20875;-85
2022/09/07 03:02:37;;;;;;;4.95;3.37;;;;;;;6.55;75.95;101566.72;1699456;84;20995;-86
2022/09/07 03:05:18;;;;;;;2.65;2.12;;;;;;;6.53;76.04;101563.30;1699392;84;20967;-86
2022/09/07 03:08:24;;;;;;;4.33;3.00;;;;;;;6.52;76.11;101569.88;1699431;84;20892;-86
2022/09/07 03:10:51;;;;;;;4.78;2.77;;;;;;;6.52;75.98;101569.88;1698960;84;21163;-85
2022/09/07 03:13:23;;;;;;;4.15;3.25;;;;;;;6.49;75.91;101568.65;1699114;84;20868;-86
2022/09/07 03:15:49;;;;;;;4.12;2.40;;;;;;;6.47;75.95;101571.73;1699373;84;21515;-86
2022/09/07 03:18:16;;;;;;;5.40;2.42;;;;;;;6.43;76.01;101573.14;1699239;84;20951;-85
2022/09/07 03:20:43;;;;;;;6.10;3.02;;;;;;;6.43;76.13;101572.30;1699361;84;20912;-86
2022/09/07 03:23:09;;;;;;;4.25;2.40;;;;;;;6.41;76.21;101578.84;1699418;84;21154;-87
2022/09/07 03:25:37;;;;;;;4.05;2.62;;;;;;;6.41;76.33;101578.84;1699164;84;20908;-88
2022/09/07 03:28:04;;;;;;;3.85;2.75;;;;;;;6.43;76.35;101575.75;1763523;81;20962;-85
2022/09/07 03:30:31;;;;;;;7.95;2.50;;;;;;;6.44;76.41;101585.26;1809460;77;20931;-86
2022/09/07 03:32:58;;;;;;;8.38;2.50;;;;;;;6.46;76.49;101581.31;1825597;77;20848;-88
2022/09/07 03:35:25;;;;;;;4.78;3.50;;;;;;;6.46;76.52;101581.31;1825467;77;21268;-87
2022/09/07 03:37:51;;;;;;;4.80;3.12;;;;;;;6.47;76.51;101581.74;1825301;78;20920;-88
2022/09/07 03:40:18;;;;;;;4.05;2.27;;;;;;;6.49;76.41;101589.49;1825538;78;20848;-88
2022/09/07 03:42:51;;;;;;;3.08;2.50;;;;;;;6.48;76.49;101584.73;1825664;77;20911;-88
2022/09/07 03:45:18;;;;;;;4.25;2.65;;;;;;;6.49;76.54;101589.07;1825770;77;20852;-88
2022/09/07 03:47:45;;;;;;;6.53;2.37;;;;;;;6.50;76.55;101590.77;1825435;77;21984;-87
2022/09/07 03:50:12;;;;;;;4.78;2.77;;;;;;;6.52;76.47;101595.48;1825538;77;20883;-86
2022/09/07 03:52:38;;;;;;;7.90;3.58;;;;;;;6.54;76.46;101593.70;1825557;77;20887;-87
2022/09/07 03:55:05;;;;;;;4.97;2.62;;;;;;;6.57;76.50;101596.20;1825401;77;20883;-88
2022/09/07 03:57:33;;;;;;;6.03;2.85;;;;;;;6.62;76.44;101594.31;1824154;77;20985;-88
2022/09/07 03:59:59;;;;;;;6.30;2.80;;;;;;;6.69;76.37;101597.61;1821987;78;21855;-85
2022/09/07 04:02:26;;;;;;;3.90;2.77;;;;;;;6.74;76.24;101598.81;1821717;78;20844;-88
2022/09/07 04:04:53;;;;;;;8.93;3.15;;;;;;;6.79;76.18;101599.52;1822101;78;20939;-86
2022/09/07 04:07:19;;;;;;;5.67;2.92;;;;;;;6.84;76.06;101603.69;1822084;78;20962;-87
2022/09/07 04:09:50;;;;;;;5.33;2.95;;;;;;;6.89;75.88;101615.29;1822157;78;20947;-87
2022/09/07 04:12:16;;;;;;;7.45;3.58;;;;;;;6.94;75.82;101608.67;1822187;78;21517;-87
2022/09/07 04:14:43;;;;;;;12.15;3.98;;;;;;;6.98;75.83;101617.66;1821985;78;20884;-87
2022/09/07 04:17:09;;;;;;;2.92;2.60;;;;;;;7.03;75.96;101613.61;1822109;78;20915;-87
2022/09/07 04:19:36;;;;;;;3.58;2.40;;;;;;;7.10;76.17;101606.01;1822348;78;21404;-87
2022/09/07 04:22:03;;;;;;;3.52;2.60;;;;;;;7.16;76.31;101615.39;1824475;78;20966;-85
2022/09/07 04:24:29;;;;;;;3.85;2.92;;;;;;;7.23;76.52;101612.56;1824812;78;21170;-86
2022/09/07 04:26:56;;;;;;;6.28;3.02;;;;;;;7.29;76.69;101614.12;1823268;78;20891;-87
2022/09/07 04:29:22;;;;;;;4.85;3.40;;;;;;;7.35;76.79;101614.39;1823462;78;21011;-88
2022/09/07 04:31:49;;;;;;;7.12;2.72;;;;;;;7.33;76.89;101600.09;1824711;77;20951;-88
2022/09/07 04:34:16;;;;;;;6.37;2.92;;;;;;;7.51;77.05;101618.69;1824654;78;20923;-88
2022/09/07 04:36:42;;;;;;;11.70;3.35;;;;;;;7.58;77.30;101615.86;1824487;77;21102;-88
2022/09/07 04:39:09;;;;;;;4.05;3.00;;;;;;;7.68;77.26;101618.56;1824206;77;20927;-86
2022/09/07 04:41:36;;;;;;;5.37;2.75;;;;;;;7.79;77.29;101613.45;1819157;77;20934;-88
2022/09/07 04:44:03;;;;;;;2.50;2.25;;;;;;;7.91;77.38;101617.41;1824251;77;20978;-88
2022/09/07 04:46:36;;;;;;;7.78;2.85;;;;;;;8.05;77.48;101613.91;1824209;77;21141;-88
2022/09/07 04:49:05;;;;;;;5.25;2.75;;;;;;;8.25;77.59;101618.00;1824319;77;21388;-88
2022/09/07 04:51:32;;;;;;;4.25;2.47;;;;;;;8.58;77.80;101621.70;1824228;77;20899;-88
2022/09/07 04:54:01;;;;;;;8.48;2.27;;;;;;;9.09;77.61;101625.93;1823954;77;20875;-89
2022/09/07 04:56:28;;;;;;;5.33;3.17;;;;;;;9.77;77.05;101621.98;1824078;77;20876;-89
2022/09/07 04:58:55;;;;;;;3.77;2.35;;;;;;;10.55;75.55;101628.34;1826825;78;20892;-88
2022/09/07 05:01:23;;;;;;;4.83;2.52;;;;;;;11.24;73.68;101620.45;1827997;77;21109;-87
2022/09/07 05:03:49;;;;;;;11.78;2.45;;;;;;;11.85;72.13;101625.41;1827789;77;21117;-87
2022/09/07 05:06:18;;;;;;;4.15;2.83;;;;;;;12.56;69.80;101625.34;1827897;77;20966;-88
2022/09/07 05:08:51;;;;;;;4.15;2.50;;;;;;;13.47;67.38;101621.77;1827838;77;20930;-88
2022/09/07 05:11:19;;;;;;;3.40;2.12;;;;;;;14.44;64.12;101620.97;1828117;77;21034;-88
2022/09/07 05:13:45;;;;;;;4.12;2.42;;;;;;;15.40;60.84;101622.53;1828179;78;21188;-88
2022/09/07 05:16:16;;;;;;;3.60;1.95;;;;;;;16.32;58.27;101617.80;1828228;77;20891;-87
2022/09/07 05:18:43;;;;;;;5.47;2.87;;;;;;;17.16;55.46;101612.86;1828471;77;20970;-86
2022/09/07 05:21:13;;;;;;;2.08;1.47;;;;;;;17.91;53.06;101614.00;1828719;77;20961;-88
2022/09/07 05:23:39;;;;;;;3.67;2.02;;;;;;;18.61;50.66;101616.22;1827369;78;20903;-88
2022/09/07 05:26:06;;;;;;;3.47;1.85;;;;;;;19.25;49.14;101618.23;1826007;78;21915;-88
2022/09/07 05:28:33;;;;;;;7.20;2.05;;;;;;;19.86;47.65;101616.39;1825801;78;20931;-88
2022/09/07 05:31:07;;;;;;;6.40;2.22;;;;;;;20.43;45.95;101619.55;1825864;78;21485;-87
2022/09/07 05:33:33;;;;;;;;;;;;;;;20.96;44.04;101618.07;1828508;78;20939;-88
2022/09/07 05:36:00;;;;;;;2.30;1.35;;;;;;;21.42;41.71;101618.00;1825945;78;20121;-88
2022/09/07 05:38:28;;;;;;;3.40;1.32;;;;;;;21.73;41.21;101609.37;1825957;78;21898;-87
2022/09/07 05:40:54;;;;;;;2.98;2.08;;;;;;;22.09;40.26;101614.97;1827179;77;21070;-88
2022/09/07 05:43:21;;;;;;;6.85;2.37;;;;;;;22.45;39.93;101609.85;1827842;78;20939;-89
2022/09/07 05:45:48;;;;;;;4.60;1.80;;;;;;;22.80;38.86;101619.02;1825859;78;20891;-89
2022/09/07 05:48:14;;;;;;;2.62;1.52;;;;;;;23.15;38.56;101613.46;1825867;78;20875;-89
2022/09/07 05:50:51;;;;;;;3.25;1.50;;;;;;;23.45;38.12;101616.27;1825909;78;21136;-88
2022/09/07 05:53:19;;;;;;;1.50;1.30;;;;;;;23.78;36.86;101613.94;1825850;78;20864;-88
2022/09/07 05:55:46;;;;;;;3.17;1.30;;;;;;;24.11;35.75;101617.72;1825650;78;21096;-89
2022/09/07 05:58:12;;;;;;;2.55;1.25;;;;;;;24.50;35.30;101615.14;1824392;78;20974;-90
2022/09/07 06:00:39;;;;;;;3.00;1.30;;;;;;;24.78;34.86;101612.60;1822396;78;20989;-90
2022/09/07 06:03:06;;;;;;;1.67;1.57;;;;;;;25.03;33.90;101620.75;1822377;78;21139;-89
2022/09/07 06:05:35;;;;;;;5.50;1.45;;;;;;;25.37;33.42;101615.86;1731080;79;20944;-88
2022/09/07 06:08:03;;;;;;;3.47;2.02;;;;;;;25.71;33.17;101615.72;1730071;82;20900;-86
2022/09/07 06:10:36;;;;;;;5.28;1.98;;;;;;;25.90;32.73;101611.04;1699633;83;21035;-88
2022/09/07 06:13:04;;;;;;;3.95;1.32;;;;;;;26.09;32.27;101610.70;1729804;83;21010;-88
2022/09/07 06:15:32;;;;;;;2.15;1.20;;;;;;;26.22;31.64;101612.87;1730055;83;21131;-88
2022/09/07 06:18:00;;;;;;;2.20;1.07;;;;;;;26.38;31.04;101617.38;1729779;83;20939;-86
2022/09/07 06:20:26;;;;;;;2.95;0.85;;;;;;;26.52;30.78;101617.99;1730587;83;20998;-88
2022/09/07 06:22:52;;;;;;;1.00;0.90;;;;;;;26.72;30.17;101621.67;1730142;83;20943;-88
2022/09/07 06:25:19;;;;;;;1.87;1.15;;;;;;;27.02;29.59;101625.42;1730339;83;20896;-87
2022/09/07 06:27:48;;;;;;;3.35;0.90;;;;;;;27.06;29.29;101628.93;1730296;83;21258;-86
2022/09/07 06:30:14;;;;;;;6.70;1.30;;;;;;;27.07;28.89;101623.86;1730580;83;20956;-88
2022/09/07 06:32:41;;;;;;;1.12;0.98;;;;;;;27.09;28.70;101626.39;1730429;83;20900;-87
2022/09/07 06:35:09;;;;;;;2.35;0.95;;;;;;;27.33;28.79;101630.83;1730145;83;20907;-88
2022/09/07 06:37:36;;;;;;;6.28;0.90;;;;;;;27.62;28.36;101632.82;1730281;83;21476;-89
2022/09/07 06:40:03;;;;;;;7.70;1.20;;;;;;;27.86;27.96;101625.61;1730468;83;21284;-88
2022/09/07 06:42:31;;;;;;;0.93;0.80;;;;;;;28.06;27.26;101625.93;1730169;83;20892;-87
2022/09/07 06:44:58;;;;;;;3.20;1.52;;;;;;;28.28;27.22;101629.56;1730382;83;21405;-87
2022/09/07 06:47:24;;;;;;;1.77;0.80;;;;;;;28.39;26.72;101628.28;1730313;83;20983;-85
2022/09/07 06:49:51;;;;;;;1.02;0.50;;;;;;;28.30;26.29;101638.31;1729814;83;20900;-87
2022/09/07 06:52:18;;;;;;;2.17;0.75;;;;;;;28.31;26.06;101634.09;1729905;83;21146;-89
2022/09/07 06:54:44;;;;;;;1.92;0.50;;;;;;;28.35;26.20;101637.27;1729816;83;21036;-88
2022/09/07 06:57:11;;;;;;;2.60;0.85;;;;;;;28.45;26.42;101641.03;1729813;83;21441;-86
2022/09/07 06:59:38;;;;;;;1.82;1.02;;;;;;;28.61;26.41;101638.70;1729900;83;20872;-87
2022/09/07 07:02:06;;;;;;;1.60;0.70;;;;;;;28.79;25.73;101635.12;1730235;83;20942;-87
2022/09/07 07:04:33;;;;;;;1.25;0.80;;;;;;;29.05;25.41;101638.65;1728246;83;21141;-88
2022/09/07 07:07:00;;;;;;;2.25;1.30;;;;;;;29.24;25.36;101639.95;1725758;83;20872;-89
2022/09/07 07:09:26;;;;;;;2.72;0.82;;;;;;;29.34;24.93;101640.47;1725762;83;20983;-88
2022/09/07 07:11:53;;;;;;;3.05;1.30;;;;;;;29.44;25.14;101639.34;1724361;83;21014;-88
2022/09/07 07:14:20;;;;;;;0.90;0.88;;;;;;;29.64;25.11;101640.89;1725064;83;20940;-87
2022/09/07 07:16:47;;;;;;;1.42;1.20;;;;;;;29.70;24.51;101643.69;1724612;83;21108;-88
2022/09/07 07:19:14;;;;;;;2.50;1.42;;;;;;;29.77;24.26;101641.05;1726148;83;21010;-85
2022/09/07 07:21:41;;;;;;;4.28;0.82;;;;;;;29.82;24.36;101638.59;1727149;83;20936;-89
2022/09/07 07:24:13;;;;;;;1.00;0.95;;;;;;;29.56;23.52;101643.19;1727260;83;20960;-87
2022/09/07 07:26:43;;;;;;;1.80;0.80;;;;;;;29.17;24.06;101639.05;1727090;83;20936;-87
2022/09/07 07:29:11;;;;;;;1.20;0.95;;;;;;;29.20;24.61;101635.12;1724500;83;21152;-88
2022/09/07 07:31:39;;;;;;;3.62;0.85;;;;;;;29.18;24.20;101639.87;1723641;83;20948;-86
2022/09/07 07:34:07;;;;;;;1.45;1.00;;;;;;;29.17;24.37;101637.70;1726268;83;21406;-87
2022/09/07 07:36:35;;;;;;;1.80;1.35;;;;;;;29.33;24.28;101644.20;1699182;83;20873;-87
2022/09/07 07:39:04;;;;;;;1.37;0.70;;;;;;;29.58;24.17;101637.08;1726560;83;20932;-87
2022/09/07 07:41:33;;;;;;;2.45;0.75;;;;;;;29.79;23.92;101637.61;1725809;83;20956;-88
2022/09/07 07:44:02;;;;;;;2.50;0.72;;;;;;;30.04;23.58;101638.57;1725615;82;21093;-89
2022/09/07 07:46:30;;;;;;;3.20;1.00;;;;;;;30.16;23.26;101637.81;1698418;83;20948;-88
2022/09/07 07:48:57;;;;;;;1.67;0.50;;;;;;;30.30;23.04;101627.94;1724702;83;20959;-88
2022/09/07 07:51:24;;;;;;;0.98;0.60;;;;;;;30.36;22.81;101633.92;1724960;83;20963;-87
2022/09/07 07:53:50;;;;;;;1.17;0.47;;;;;;;30.41;22.57;101618.43;1725152;83;21154;-88
2022/09/07 07:56:17;;;;;;;4.72;0.98;;;;;;;30.54;22.28;101622.57;1725346;83;21458;-87
2022/09/07 07:58:46;;;;;;;0.95;0.75;;;;;;;30.64;22.28;101618.66;1725146;82;20873;-88
2022/09/07 08:01:15;;;;;;;0.70;0.60;;;;;;;30.83;21.83;101616.56;1725709;83;20979;-87
2022/09/07 08:03:45;;;;;;;2.35;0.75;;;;;;;31.07;21.76;101621.17;1725748;83;20975;-88
2022/09/07 08:06:16;;;;;;;1.95;0.75;;;;;;;31.05;21.69;101619.19;1730184;83;23265;-88
2022/09/07 08:08:44;;;;;;;0.85;0.72;;;;;;;31.01;21.83;101618.75;1730595;81;21052;-87
2022/09/07 08:11:17;;;;;;;1.25;0.68;;;;;;;31.24;21.80;101614.35;1731114;83;20908;-87
2022/09/07 08:13:48;;;;;;;1.15;0.47;;;;;;;31.46;21.35;101609.63;1731460;83;20944;-87
2022/09/07 08:16:15;;;;;;;2.17;0.70;;;;;;;31.69;21.45;101609.22;1731748;82;21081;-87
2022/09/07 08:18:44;;;;;;;2.62;0.45;;;;;;;31.78;21.00;101608.49;1732546;82;21228;-85
2022/09/07 08:21:13;;;;;;;1.07;0.98;;;;;;;31.81;20.14;101605.35;1731378;83;20940;-87
2022/09/07 08:23:40;;;;;;;1.37;1.20;;;;;;;31.55;20.04;101606.17;1731168;83;20964;-87
2022/09/07 08:26:07;;;;;;;4.47;0.80;;;;;;;31.14;19.97;101603.88;1730277;83;20900;-87
2022/09/07 08:28:39;;;;;;;1.85;0.53;;;;;;;30.78;21.12;101599.56;1730361;83;20975;-87
2022/09/07 08:31:08;;;;;;;;;;;;;;;30.63;20.80;101600.75;1734455;83;23287;-85
2022/09/07 08:33:36;;;;;;;3.42;0.90;;;;;;;30.14;21.06;101595.23;1732409;82;20117;-84
2022/09/07 08:36:15;;;;;;;0.70;0.42;;;;;;;29.48;21.75;101596.87;1700856;83;21428;-86
2022/09/07 08:38:42;;;;;;;1.62;0.70;;;;;;;28.85;22.30;101599.77;1730050;83;20955;-86
2022/09/07 08:41:40;;;;;;;1.47;0.57;;;;;;;28.13;22.90;101600.41;1729940;83;20944;-87
2022/09/07 08:44:23;;;;;;;1.42;0.57;;;;;;;27.47;23.70;101600.41;1729789;83;21144;-86
2022/09/07 08:46:58;;;;;;;4.35;0.62;;;;;;;26.75;24.36;101594.42;1730170;83;21330;-87
2022/09/07 08:49:45;;;;;;;2.55;0.50;;;;;;;26.30;25.44;101589.97;1731283;83;20915;-87
2022/09/07 08:52:23;;;;;;;3.20;0.60;;;;;;;26.15;26.12;101580.45;1700217;83;21384;-89
2022/09/07 08:55:04;;;;;;;0.57;0.57;;;;;;;26.42;25.41;101577.02;1730496;83;20884;-88
2022/09/07 08:57:32;;;;;;;1.47;0.42;;;;;;;26.74;25.28;101580.11;1731471;83;21138;-88
2022/09/07 09:00:09;;;;;;;0.65;0.50;;;;;;;27.11;24.98;101571.84;1731308;83;20932;-87
2022/09/07 09:02:35;;;;;;;1.32;0.78;;;;;;;27.60;24.04;101566.66;1731475;81;20943;-88
2022/09/07 09:05:04;;;;;;;1.02;0.35;;;;;;;28.07;23.36;101568.26;1730095;83;20955;-88
2022/09/07 09:07:39;;;;;;;1.05;0.70;;;;;;;28.50;23.07;101565.78;1725807;83;20904;-87
2022/09/07 09:10:37;;;;;;;0.60;0.45;;;;;;;28.89;22.34;101565.44;1725584;83;21221;-88
2022/09/07 09:13:59;;;;;;;0.35;0.30;;;;;;;29.52;21.96;101554.88;1817764;78;22607;-85
2022/09/07 09:16:47;;;;;;;1.25;0.50;;;;;;;29.80;21.70;101554.63;1726373;83;20908;-86
2022/09/07 09:19:40;;;;;;;1.42;0.60;;;;;;;30.15;21.56;101556.86;1756265;81;21140;-85
2022/09/07 09:22:20;;;;;;;0.50;0.30;;;;;;;30.01;21.27;101555.91;1756249;81;20857;-86
2022/09/07 09:24:53;;;;;;;2.98;1.67;;;;;;;29.47;21.81;101555.98;1756469;81;20892;-86
2022/09/07 09:27:20;;;;;;;0.70;0.40;;;;;;;28.81;22.09;101554.74;1755152;81;20959;-86
2022/09/07 09:29:46;;;;;;;2.35;0.65;;;;;;;28.17;22.56;101552.66;1756099;81;20884;-86
2022/09/07 09:32:34;;;;;;;0.88;0.70;;;;;;;27.79;23.03;101554.02;1755281;81;21141;-85
2022/09/07 09:35:11;;;;;;;0.60;0.55;;;;;;;27.74;23.54;101542.09;1753758;81;20849;-85
2022/09/07 09:37:39;;;;;;;1.15;0.37;;;;;;;27.98;23.22;101545.93;1755014;81;20932;-85
2022/09/07 09:40:19;;;;;;;2.05;0.60;;;;;;;28.26;22.56;101539.91;1755022;81;20912;-82
2022/09/07 09:42:45;;;;;;;0.80;0.33;;;;;;;28.48;22.30;101540.34;1755043;81;21342;-86
2022/09/07 09:45:21;;;;;;;1.37;0.30;;;;;;;28.50;21.74;101533.39;1755031;81;21133;-85
2022/09/07 09:47:49;;;;;;;2.55;0.62;;;;;;;28.27;21.78;101530.27;1755095;81;20916;-86
2022/09/07 09:50:21;;;;;;;1.25;0.60;;;;;;;27.88;21.78;101528.69;1754994;81;20896;-84
2022/09/07 09:52:48;;;;;;;3.33;1.47;;;;;;;27.46;22.82;101534.61;1725328;83;20912;-84
2022/09/07 09:55:26;;;;;;;1.42;0.80;;;;;;;26.96;23.52;101541.31;1725278;82;20900;-86
2022/09/07 09:57:57;;;;;;;0.72;0.50;;;;;;;26.58;24.10;101536.62;1725119;83;21236;-86
2022/09/07 10:00:23;;;;;;;2.35;1.00;;;;;;;26.47;24.79;101531.08;1696929;83;20936;-86
2022/09/07 10:03:16;;;;;;;1.25;0.68;;;;;;;26.59;24.87;101529.38;1725610;83;20987;-86
2022/09/07 10:05:45;;;;;;;1.25;0.40;;;;;;;26.90;24.40;101528.55;1725661;83;20948;-86
2022/09/07 10:08:23;;;;;;;0.60;0.60;;;;;;;27.39;23.58;101526.41;1726363;83;20944;-86
2022/09/07 10:11:04;;;;;;;4.35;2.77;;;;;;;27.73;23.28;101516.17;1726614;83;21259;-87
2022/09/07 10:13:34;;;;;;;0.40;0.30;;;;;;;27.97;22.70;101515.95;1714404;83;21576;-85
2022/09/07 10:16:04;;;;;;;1.07;0.80;;;;;;;28.26;22.39;101512.42;1681866;84;20956;-88
2022/09/07 10:18:55;;;;;;;1.60;0.80;;;;;;;28.63;22.52;101514.66;1745538;82;20940;-87
2022/09/07 10:21:32;;;;;;;0.60;0.45;;;;;;;28.61;22.83;101518.58;1709978;84;20992;-87
2022/09/07 10:24:08;;;;;;;1.90;0.50;;;;;;;28.18;23.05;101519.77;1746806;82;21393;-87
2022/09/07 10:26:36;;;;;;;1.15;1.05;;;;;;;27.63;23.71;101525.33;1746532;82;20897;-86
2022/09/07 10:29:23;;;;;;;1.35;0.75;;;;;;;27.07;23.78;101523.40;1724994;82;20896;-83
2022/09/07 10:32:10;;;;;;;2.20;0.60;;;;;;;26.64;24.09;101523.82;1746779;82;21724;-86
2022/09/07 10:34:51;;;;;;;0.95;0.40;;;;;;;26.13;24.96;101516.59;1745766;82;20921;-89
2022/09/07 10:37:48;;;;;;;1.75;0.68;;;;;;;25.63;25.75;101513.61;1745620;82;21250;-87
2022/09/07 10:40:29;;;;;;;0.65;0.55;;;;;;;25.25;25.96;101516.48;1745459;82;20971;-86
2022/09/07 10:43:01;;;;;;;0.70;0.62;;;;;;;24.85;26.03;101508.66;1723756;82;20956;-87
2022/09/07 10:45:51;;;;;;;2.00;0.72;;;;;;;24.41;26.45;101506.48;1745075;82;20869;-85
2022/09/07 10:48:38;;;;;;;0.50;0.50;;;;;;;24.07;26.19;101508.31;1745173;82;21034;-86
2022/09/07 10:51:31;;;;;;;2.55;0.50;;;;;;;23.69;27.26;101512.55;1746182;82;21285;-85
2022/09/07 10:54:29;;;;;;;1.10;0.50;;;;;;;23.25;27.97;101509.84;1745632;82;20939;-85
2022/09/07 10:57:39;;;;;;;1.20;1.10;;;;;;;22.89;28.08;101507.12;1742762;82;20880;-86
2022/09/07 11:00:15;;;;;;;1.35;0.90;;;;;;;22.72;28.53;101513.27;1745303;82;21343;-86
2022/09/07 11:03:02;;;;;;;1.42;1.27;;;;;;;22.53;28.82;101510.23;1745269;82;20896;-86
2022/09/07 11:06:05;;;;;;;0.85;0.50;;;;;;;22.41;29.48;101508.25;1724004;82;20944;-86
2022/09/07 11:08:59;;;;;;;0.95;0.82;;;;;;;22.30;29.80;101509.78;1745545;82;21473;-86
2022/09/07 11:11:39;;;;;;;2.85;0.98;;;;;;;22.13;29.82;101509.51;1710126;84;20893;-86
2022/09/07 11:14:14;;;;;;;1.20;0.70;;;;;;;22.04;29.95;101509.55;1746255;81;20881;-88
2022/09/07 11:17:00;;;;;;;0.95;0.62;;;;;;;21.93;30.17;101508.72;1745293;82;20973;-87
2022/09/07 11:19:31;;;;;;;2.90;0.65;;;;;;;21.88;30.04;101505.65;1745221;82;20916;-87
2022/09/07 11:22:17;;;;;;;0.98;0.88;;;;;;;21.82;30.71;101506.72;1709875;83;20873;-86
2022/09/07 11:25:01;;;;;;;2.75;0.75;;;;;;;21.69;30.90;101502.52;1747907;80;20916;-85
2022/09/07 11:27:32;;;;;;;0.90;0.60;;;;;;;21.62;30.88;101500.07;1745241;82;21826;-84
2022/09/07 11:30:07;;;;;;;0.60;0.37;;;;;;;21.61;31.28;101500.20;1745021;82;20975;-83
2022/09/07 11:32:37;;;;;;;1.05;0.70;;;;;;;21.63;30.97;101497.77;1745004;82;21980;-83
2022/09/07 11:35:15;;;;;;;1.22;0.55;;;;;;;21.68;30.65;101497.34;1709359;84;21323;-87
2022/09/07 11:37:53;;;;;;;1.67;0.78;;;;;;;21.73;30.66;101490.56;1744279;82;20972;-85
2022/09/07 11:40:41;;;;;;;1.72;0.78;;;;;;;21.90;30.57;101491.66;1688678;84;20957;-86
2022/09/07 11:43:22;;;;;;;2.10;0.90;;;;;;;22.11;30.21;101490.61;1723751;82;21031;-88
2022/09/07 11:45:56;;;;;;;0.88;0.53;;;;;;;22.25;30.04;101487.98;1744957;82;21014;-87
2022/09/07 11:48:47;;;;;;;1.80;1.02;;;;;;;22.29;30.17;101476.84;1743953;82;20940;-87
2022/09/07 11:51:32;;;;;;;1.25;0.95;;;;;;;22.36;29.89;101485.11;1744834;82;21015;-87
2022/09/07 11:54:19;;;;;;;1.77;0.80;;;;;;;22.43;30.40;101481.35;1745382;82;20892;-88
2022/09/07 11:56:58;;;;;;;0.98;0.60;;;;;;;22.54;29.91;101478.48;1745120;82;20884;-88
2022/09/07 12:00:09;;;;;;;2.25;0.60;;;;;;;22.64;29.41;101479.78;1746655;82;21138;-86